Time;durP1;ratioP1;P1;durP2;ratioP2;P2;SDS_P1;SDS_P2;PMS_P1;PMS_P2;Temp;Humidity;BMP_temperature;BMP_pressure;BME280_temperature;BME280_humidity;BME280_pressure;Samples;Min_cycle;Max_cycle;Signal;HPM_P1;HPM_P2
2021/06/05 00:00:11;;;;;;;26.73;18.55;;;;;;;21.86;57.43;101598.47;5075330;28;20041;-74
2021/06/05 00:02:39;;;;;;;23.38;18.02;;;;;;;21.84;57.50;101601.38;5073675;28;20068;-74
2021/06/05 00:05:07;;;;;;;23.75;17.95;;;;;;;21.83;57.42;101597.03;5075939;28;20040;-74
2021/06/05 00:07:34;;;;;;;23.58;17.23;;;;;;;21.83;57.38;101599.72;5074519;28;20079;-74
2021/06/05 00:10:01;;;;;;;22.23;17.15;;;;;;;21.85;57.27;101600.34;5074221;28;20489;-74
2021/06/05 00:12:29;;;;;;;23.30;17.95;;;;;;;21.83;57.24;101594.34;5074318;28;20489;-74
2021/06/05 00:14:55;;;;;;;23.30;17.25;;;;;;;21.84;57.35;101589.75;5074640;28;20041;-74
2021/06/05 00:17:24;;;;;;;23.73;17.35;;;;;;;21.83;57.35;101601.59;5086995;28;20501;-74
2021/06/05 00:19:51;;;;;;;23.13;17.10;;;;;;;21.83;57.49;101597.03;5093536;28;20119;-74
2021/06/05 00:22:19;;;;;;;22.42;16.98;;;;;;;21.82;57.36;101592.66;5095378;28;20097;-74
2021/06/05 00:24:45;;;;;;;22.35;17.13;;;;;;;21.81;57.46;101596.41;5095257;28;20073;-74
2021/06/05 00:27:12;;;;;;;24.52;17.50;;;;;;;21.81;57.29;101595.56;5082227;28;20040;-74
2021/06/05 00:29:39;;;;;;;24.45;17.23;;;;;;;21.82;57.36;101594.53;5094609;28;20089;-74
2021/06/05 00:32:07;;;;;;;20.92;16.08;;;;;;;21.81;57.10;101599.13;5086205;28;20138;-74
2021/06/05 00:34:34;;;;;;;23.30;17.25;;;;;;;21.82;57.23;101602.63;5072732;28;20053;-74
2021/06/05 00:37:01;;;;;;;21.58;15.75;;;;;;;21.82;57.19;101605.34;5074524;28;20032;-74
2021/06/05 00:39:28;;;;;;;21.55;16.27;;;;;;;21.81;57.13;101606.38;5073563;28;20090;-74
2021/06/05 00:41:55;;;;;;;21.45;16.40;;;;;;;21.81;57.40;101611.75;5074967;28;20437;-74
2021/06/05 00:44:22;;;;;;;21.88;16.45;;;;;;;21.79;57.20;101613.84;5082951;28;20047;-74
2021/06/05 00:46:49;;;;;;;21.25;15.75;;;;;;;21.81;57.33;101617.16;5094184;28;20401;-74
2021/06/05 00:49:16;;;;;;;20.38;15.95;;;;;;;21.81;57.26;101615.31;5092859;28;20066;-74
2021/06/05 00:51:46;;;;;;;20.05;15.43;;;;;;;21.80;57.05;101618.22;5094813;28;20047;-74
2021/06/05 00:54:15;;;;;;;19.80;15.33;;;;;;;21.80;57.24;101623.63;5076664;28;20138;-74
2021/06/05 00:56:47;;;;;;;20.08;15.35;;;;;;;21.81;57.25;101623.41;5092987;28;20105;-74
2021/06/05 00:59:14;;;;;;;;;;;;;;;21.80;56.99;101623.63;5094763;28;20473;-74
2021/06/05 01:01:41;;;;;;;19.45;14.60;;;;;;;21.77;57.31;101622.16;5091103;28;20012;-74
2021/06/05 01:04:10;;;;;;;20.17;14.50;;;;;;;21.76;57.09;101616.97;5094131;28;20554;-74
2021/06/05 01:06:50;;;;;;;21.15;15.43;;;;;;;21.77;57.00;101613.22;5076535;28;20044;-74
2021/06/05 01:09:57;;;;;;;19.88;14.82;;;;;;;21.77;56.98;101615.94;5092940;28;20472;-74
2021/06/05 01:12:43;;;;;;;19.38;14.73;;;;;;;21.79;56.88;101614.69;5093869;28;20048;-74
2021/06/05 01:15:17;;;;;;;19.20;14.50;;;;;;;21.82;56.89;101618.84;5093824;28;20048;-74
2021/06/05 01:17:54;;;;;;;20.05;14.60;;;;;;;21.80;56.90;101610.94;5091575;28;20048;-74
2021/06/05 01:20:59;;;;;;;20.00;14.93;;;;;;;21.80;56.78;101599.31;5089701;28;20052;-74
2021/06/05 01:23:52;;;;;;;18.05;13.98;;;;;;;21.79;56.87;101595.78;5073670;28;20055;-74
2021/06/05 01:26:27;;;;;;;18.50;14.15;;;;;;;21.81;56.80;101592.84;5082003;28;20040;-74
2021/06/05 01:29:19;;;;;;;18.15;13.60;;;;;;;21.74;56.82;101582.06;5093311;28;20524;-74
2021/06/05 01:31:59;;;;;;;18.38;13.68;;;;;;;21.82;56.67;101602.63;5085235;28;20112;-74
2021/06/05 01:34:34;;;;;;;19.20;14.70;;;;;;;21.82;56.59;101597.22;5080899;28;20055;-73
2021/06/05 01:37:07;;;;;;;18.40;13.48;;;;;;;21.81;56.60;101595.56;5072750;28;20045;-73
2021/06/05 01:39:41;;;;;;;19.02;13.98;;;;;;;21.81;56.81;101606.38;5091777;28;20120;-73
2021/06/05 01:42:14;;;;;;;18.08;14.07;;;;;;;21.77;56.85;101605.94;5093829;28;20522;-73
2021/06/05 01:44:46;;;;;;;17.77;13.73;;;;;;;21.80;56.49;101608.25;5092311;28;20044;-73
2021/06/05 01:47:14;;;;;;;18.02;13.70;;;;;;;21.78;56.50;101606.78;5093367;28;20054;-73
2021/06/05 01:49:42;;;;;;;18.98;13.98;;;;;;;21.79;56.53;101608.44;5089852;28;20040;-74
2021/06/05 01:52:13;;;;;;;18.33;13.90;;;;;;;21.73;56.72;101599.31;5073428;28;20048;-73
2021/06/05 01:54:50;;;;;;;17.23;13.18;;;;;;;21.76;56.85;101604.31;5073092;28;20390;-73
2021/06/05 01:57:21;;;;;;;18.75;13.38;;;;;;;21.75;56.54;101613.44;5072865;28;20067;-73
2021/06/05 01:59:54;;;;;;;18.02;13.48;;;;;;;21.75;56.71;101605.31;5071671;28;20114;-74
2021/06/05 02:02:30;;;;;;;17.00;13.27;;;;;;;21.74;56.58;101597.44;5070449;28;20503;-73
2021/06/05 02:05:06;;;;;;;16.85;12.90;;;;;;;21.72;56.70;101599.50;5056219;28;20048;-73
2021/06/05 02:07:33;;;;;;;16.30;12.38;;;;;;;21.74;56.77;101609.09;5073074;28;20051;-73
2021/06/05 02:10:04;;;;;;;17.02;13.10;;;;;;;21.75;56.43;101599.09;5071813;28;20040;-73
2021/06/05 02:12:34;;;;;;;17.02;13.00;;;;;;;21.76;56.49;101604.31;5055786;28;20075;-73
2021/06/05 02:18:07;;;;;;;16.70;12.70;;;;;;;21.75;56.58;101605.31;5109294;27;20145;-72
2021/06/05 02:20:40;;;;;;;16.60;12.55;;;;;;;21.75;56.59;101608.03;5110434;28;20123;-72
2021/06/05 02:23:13;;;;;;;16.77;12.48;;;;;;;21.74;56.36;101592.88;5110376;28;20507;-72
2021/06/05 02:25:41;;;;;;;18.85;12.57;;;;;;;21.74;56.49;101590.19;5095694;28;20135;-72
2021/06/05 02:28:09;;;;;;;16.25;12.13;;;;;;;21.74;56.48;101594.72;5068810;28;20059;-72
2021/06/05 02:30:37;;;;;;;16.67;12.10;;;;;;;21.74;56.54;101592.03;5068538;28;20490;-72
2021/06/05 02:33:05;;;;;;;16.48;12.15;;;;;;;21.73;56.34;101593.91;5068077;28;20041;-72
2021/06/05 02:35:41;;;;;;;17.33;12.55;;;;;;;21.69;56.32;101597.25;5088606;28;20076;-72
2021/06/05 02:38:18;;;;;;;16.88;12.50;;;;;;;21.72;56.56;101608.47;5088714;28;20136;-72
2021/06/05 02:40:46;;;;;;;16.35;12.00;;;;;;;21.71;56.66;101590.59;5089030;28;20045;-72
2021/06/05 02:43:20;;;;;;;16.48;12.27;;;;;;;21.66;56.65;101593.88;5089052;28;20051;-73
2021/06/05 02:45:55;;;;;;;15.48;11.75;;;;;;;21.72;56.44;101604.91;5088414;28;20048;-73
2021/06/05 02:48:47;;;;;;;15.43;11.38;;;;;;;21.73;56.24;101603.88;5069331;28;20077;-73
2021/06/05 02:51:22;;;;;;;16.55;12.15;;;;;;;21.73;56.39;101598.47;5071185;28;20048;-72
2021/06/05 02:53:49;;;;;;;14.95;11.50;;;;;;;21.71;56.54;101595.97;5088940;28;20097;-72
2021/06/05 02:56:18;;;;;;;15.25;11.57;;;;;;;21.71;56.26;101598.69;5071895;28;20122;-72
2021/06/05 02:58:47;;;;;;;16.75;11.82;;;;;;;21.72;56.47;101600.34;5089836;28;20044;-72
2021/06/05 03:01:18;;;;;;;14.98;10.73;;;;;;;21.72;56.38;101602.22;5087930;28;20400;-72
2021/06/05 03:03:47;;;;;;;15.98;11.80;;;;;;;21.71;56.41;101606.78;5089544;28;20075;-72
2021/06/05 03:06:15;;;;;;;16.10;11.02;;;;;;;21.71;56.32;101609.47;5088932;28;20087;-72
2021/06/05 03:08:43;;;;;;;15.18;11.32;;;;;;;21.70;56.38;101613.22;5087701;28;20523;-72
2021/06/05 03:11:15;;;;;;;14.75;11.23;;;;;;;21.70;56.10;101607.81;5089479;28;20090;-72
2021/06/05 03:13:43;;;;;;;15.30;11.48;;;;;;;21.72;56.11;101608.47;5089346;28;20077;-72
2021/06/05 03:16:13;;;;;;;15.30;11.15;;;;;;;21.72;56.30;101602.22;5095940;28;20072;-72
2021/06/05 03:18:45;;;;;;;14.60;11.10;;;;;;;21.71;56.24;101601.38;5130016;28;20047;-72
2021/06/05 03:21:17;;;;;;;14.90;11.02;;;;;;;21.71;56.40;101598.69;5129576;28;20043;-73
2021/06/05 03:23:48;;;;;;;13.93;10.43;;;;;;;21.71;56.28;101600.56;5119485;28;20138;-72
2021/06/05 03:26:24;;;;;;;14.60;10.77;;;;;;;21.71;56.12;101597.88;5109073;28;20122;-72
2021/06/05 03:28:51;;;;;;;15.18;11.00;;;;;;;21.71;56.17;101598.69;5060652;28;20099;-72
2021/06/05 03:31:21;;;;;;;14.60;10.55;;;;;;;21.72;56.03;101602.22;5075177;28;20071;-74
2021/06/05 03:33:49;;;;;;;15.57;11.13;;;;;;;21.72;56.16;101604.91;5077378;28;20045;-74
2021/06/05 03:36:21;;;;;;;13.88;10.10;;;;;;;21.65;56.31;101599.53;5077811;28;20506;-74
2021/06/05 03:38:50;;;;;;;15.57;10.65;;;;;;;21.69;56.22;101605.34;5062331;28;20531;-74
2021/06/05 03:41:23;;;;;;;14.05;10.10;;;;;;;21.67;56.34;101605.53;5062449;28;20048;-74
2021/06/05 03:43:52;;;;;;;14.40;10.45;;;;;;;21.68;56.33;101604.50;5078003;28;20408;-74
2021/06/05 03:46:19;;;;;;;15.20;11.05;;;;;;;21.70;56.29;101609.69;5098870;28;20082;-74
2021/06/05 03:48:46;;;;;;;13.82;10.05;;;;;;;21.63;56.16;101598.91;5116173;28;20036;-73
2021/06/05 03:51:13;;;;;;;13.60;10.05;;;;;;;21.69;56.11;101602.66;5097904;28;20400;-74
2021/06/05 03:53:40;;;;;;;14.15;10.07;;;;;;;21.68;56.15;101601.78;5098393;28;20135;-74
2021/06/05 03:56:07;;;;;;;13.40;10.35;;;;;;;21.67;56.09;101600.16;5116016;28;20039;-74
2021/06/05 03:58:40;;;;;;;14.70;10.48;;;;;;;21.67;56.03;101600.16;5097833;28;20407;-74
2021/06/05 04:01:10;;;;;;;15.20;10.25;;;;;;;21.67;56.29;101594.75;5063192;28;20082;-74
2021/06/05 04:03:37;;;;;;;13.55;10.00;;;;;;;21.68;56.27;101591.00;5094423;28;20058;-74
2021/06/05 04:06:04;;;;;;;13.90;9.80;;;;;;;21.67;56.09;101590.16;5074442;28;20044;-74
2021/06/05 04:08:32;;;;;;;14.13;10.05;;;;;;;21.68;56.03;101588.28;5082862;28;20047;-74
2021/06/05 04:10:59;;;;;;;14.52;9.85;;;;;;;21.68;56.22;101591.00;5076918;28;20051;-74
2021/06/05 04:13:26;;;;;;;13.15;9.70;;;;;;;21.67;56.09;101583.94;5077006;28;20044;-74
2021/06/05 04:15:53;;;;;;;12.88;9.60;;;;;;;21.66;56.11;101587.66;5093943;28;20048;-74
2021/06/05 04:18:24;;;;;;;12.48;9.43;;;;;;;21.66;56.21;101588.50;5080287;28;20046;-74
2021/06/05 04:20:51;;;;;;;13.52;9.98;;;;;;;21.64;56.34;101582.47;5087785;28;20039;-74
2021/06/05 04:23:19;;;;;;;13.38;9.68;;;;;;;21.66;55.79;101585.78;5077100;28;20040;-74
2021/06/05 04:25:46;;;;;;;14.38;9.73;;;;;;;21.69;55.91;101589.16;5039855;28;20045;-73
2021/06/05 04:28:16;;;;;;;12.55;9.05;;;;;;;21.67;56.10;101586.66;5040324;28;20060;-74
2021/06/05 04:30:44;;;;;;;13.43;9.57;;;;;;;21.69;55.81;101589.16;5073026;28;20114;-74
2021/06/05 04:33:14;;;;;;;14.07;9.90;;;;;;;21.67;55.75;101584.78;5056697;28;20047;-74
2021/06/05 04:35:41;;;;;;;12.57;9.25;;;;;;;21.67;55.91;101586.66;5039344;28;20432;-74
2021/06/05 04:38:09;;;;;;;13.00;9.60;;;;;;;21.69;55.60;101595.38;5074020;28;20507;-74
2021/06/05 04:40:37;;;;;;;14.43;9.63;;;;;;;21.68;55.72;101577.50;5039141;28;20059;-74
2021/06/05 04:43:05;;;;;;;12.43;8.93;;;;;;;21.66;56.00;101577.69;5073990;28;20068;-74
2021/06/05 04:45:32;;;;;;;13.00;9.68;;;;;;;21.67;56.04;101575.84;5074006;28;20592;-74
2021/06/05 04:48:00;;;;;;;12.02;8.90;;;;;;;21.66;55.83;101577.69;5091004;28;20395;-74
2021/06/05 04:50:30;;;;;;;12.77;9.02;;;;;;;21.68;55.92;101574.78;5079845;28;20066;-74
2021/06/05 04:52:58;;;;;;;14.13;9.33;;;;;;;21.69;55.81;101576.47;5114190;28;20067;-74
2021/06/05 04:55:25;;;;;;;12.55;9.18;;;;;;;21.69;55.95;101575.66;5096518;28;20043;-74
2021/06/05 04:57:53;;;;;;;13.27;9.07;;;;;;;21.71;55.64;101573.56;5100793;28;20040;-74
2021/06/05 05:00:26;;;;;;;12.95;9.23;;;;;;;21.71;55.66;101573.56;5076134;28;20052;-74
2021/06/05 05:02:54;;;;;;;12.85;9.18;;;;;;;21.70;55.62;101570.00;5076027;28;20069;-73
2021/06/05 05:05:21;;;;;;;12.18;8.82;;;;;;;21.69;55.85;101567.53;5090294;28;20050;-73
2021/06/05 05:07:49;;;;;;;13.02;8.77;;;;;;;21.71;55.75;101568.16;5075785;28;20051;-73
2021/06/05 05:10:21;;;;;;;12.88;9.02;;;;;;;21.71;55.58;101573.56;5094176;28;20044;-73
2021/06/05 05:12:47;;;;;;;13.45;9.18;;;;;;;21.71;55.42;101577.09;5094029;28;20040;-73
2021/06/05 05:15:14;;;;;;;12.27;8.90;;;;;;;21.72;55.63;101569.81;5075769;28;20093;-73
2021/06/05 05:17:41;;;;;;;12.35;8.80;;;;;;;21.72;55.63;101577.91;5089422;28;20560;-73
2021/06/05 05:20:11;;;;;;;13.45;8.85;;;;;;;21.72;55.66;101577.91;5092011;28;20044;-73
2021/06/05 05:22:39;;;;;;;12.10;8.38;;;;;;;21.73;55.32;101593.09;5083946;28;20432;-73
2021/06/05 05:25:08;;;;;;;12.10;8.75;;;;;;;21.73;55.62;101591.19;5073460;28;20044;-73
2021/06/05 05:27:35;;;;;;;11.63;8.30;;;;;;;21.72;55.45;101589.56;5072901;28;20096;-73
2021/06/05 05:30:07;;;;;;;12.70;8.77;;;;;;;21.73;55.48;101601.19;5073127;28;20044;-74
2021/06/05 05:32:34;;;;;;;12.05;8.38;;;;;;;21.71;55.66;101597.88;5073187;28;20086;-73
2021/06/05 05:35:01;;;;;;;12.45;8.52;;;;;;;21.71;55.71;101595.16;5055528;28;20036;-73
2021/06/05 05:37:29;;;;;;;11.82;8.55;;;;;;;21.70;55.77;101601.59;5072513;28;20085;-73
2021/06/05 05:39:56;;;;;;;12.35;8.45;;;;;;;21.71;55.67;101601.38;5055360;28;20049;-73
2021/06/05 05:42:23;;;;;;;11.20;8.00;;;;;;;21.71;55.45;101601.38;5073069;28;20123;-73
2021/06/05 05:44:49;;;;;;;11.95;8.65;;;;;;;21.72;55.52;101596.81;5055421;28;20053;-73
2021/06/05 05:47:16;;;;;;;10.93;8.07;;;;;;;21.73;55.47;101598.47;5065769;28;20127;-73
2021/06/05 05:49:43;;;;;;;11.27;8.05;;;;;;;21.73;55.67;101596.59;5093120;28;20455;-73
2021/06/05 05:52:10;;;;;;;11.52;8.40;;;;;;;21.73;55.49;101604.69;5075241;28;20094;-73
2021/06/05 05:54:36;;;;;;;11.70;7.88;;;;;;;21.74;55.43;101597.44;5075078;28;20040;-73
2021/06/05 05:57:04;;;;;;;11.27;8.18;;;;;;;21.73;55.50;101607.41;5092657;28;20040;-73
2021/06/05 05:59:31;;;;;;;11.13;7.88;;;;;;;21.74;55.29;101614.47;5092738;28;20392;-73
2021/06/05 06:01:58;;;;;;;10.63;7.90;;;;;;;21.75;55.35;101609.91;5091683;28;20108;-73
2021/06/05 06:04:25;;;;;;;10.60;7.47;;;;;;;21.74;55.49;101617.19;5055961;28;20127;-73
2021/06/05 06:06:51;;;;;;;11.57;7.75;;;;;;;21.68;55.39;101607.19;5092186;28;20447;-73
2021/06/05 06:09:18;;;;;;;10.82;7.57;;;;;;;21.74;55.51;101622.59;5058645;28;20051;-72
2021/06/05 06:11:46;;;;;;;11.30;8.05;;;;;;;21.75;55.21;101626.09;5075298;28;20040;-73
2021/06/05 06:14:15;;;;;;;12.10;8.10;;;;;;;21.74;55.37;101614.47;5092823;28;20131;-73
2021/06/05 06:16:42;;;;;;;11.57;7.90;;;;;;;21.74;55.29;101622.59;5091612;28;20048;-73
2021/06/05 06:19:13;;;;;;;11.52;7.85;;;;;;;21.74;55.36;101627.97;5055392;28;20124;-73
2021/06/05 06:21:41;;;;;;;10.48;7.20;;;;;;;21.74;55.36;101629.81;5072576;28;20513;-73
2021/06/05 06:24:10;;;;;;;11.68;7.60;;;;;;;21.74;55.39;101633.38;5089113;28;20040;-73
2021/06/05 06:26:37;;;;;;;12.25;8.00;;;;;;;21.74;55.26;101629.81;5076041;28;20122;-73
2021/06/05 06:29:08;;;;;;;10.50;7.55;;;;;;;21.75;55.13;101642.31;5094906;28;20040;-73
2021/06/05 06:31:35;;;;;;;10.45;7.55;;;;;;;21.73;55.27;101639.81;5092674;28;20062;-73
2021/06/05 06:34:02;;;;;;;11.13;7.63;;;;;;;21.74;55.17;101644.19;5093506;28;20048;-73
2021/06/05 06:36:29;;;;;;;10.85;7.60;;;;;;;21.74;55.37;101644.19;5092241;28;20048;-73
2021/06/05 06:38:58;;;;;;;9.98;6.80;;;;;;;21.73;55.31;101647.91;5092922;28;20052;-73
2021/06/05 06:41:29;;;;;;;10.38;7.32;;;;;;;21.73;55.24;101647.91;5075087;28;20071;-73
2021/06/05 06:43:57;;;;;;;10.80;7.40;;;;;;;21.73;55.18;101645.22;5080426;28;20501;-73
2021/06/05 06:46:30;;;;;;;10.85;7.55;;;;;;;21.73;55.50;101645.22;5078467;28;20514;-73
2021/06/05 06:48:58;;;;;;;10.00;7.00;;;;;;;21.75;55.34;101656.63;5079219;28;20036;-73
2021/06/05 06:51:26;;;;;;;10.82;7.55;;;;;;;21.75;55.26;101655.81;5094833;28;20040;-73
2021/06/05 06:53:54;;;;;;;9.55;6.70;;;;;;;21.74;55.29;101660.38;5112670;28;20075;-73
2021/06/05 06:56:23;;;;;;;11.27;7.68;;;;;;;21.71;55.22;101654.56;5094657;28;20036;-73
2021/06/05 06:58:50;;;;;;;9.82;7.18;;;;;;;21.76;55.20;101662.88;5094817;28;20488;-73
2021/06/05 07:01:17;;;;;;;9.93;7.10;;;;;;;21.75;55.29;101663.91;5072796;28;20048;-73
2021/06/05 07:03:44;;;;;;;10.25;7.22;;;;;;;21.75;55.29;101662.03;5094250;28;20126;-73
2021/06/05 07:06:12;;;;;;;11.20;7.30;;;;;;;21.75;55.31;101667.44;5074867;28;20043;-73
2021/06/05 07:08:41;;;;;;;10.70;7.35;;;;;;;21.77;55.25;101672.63;5077881;28;20100;-72
2021/06/05 07:11:28;;;;;;;11.10;7.40;;;;;;;21.76;55.46;101665.59;5096269;28;20050;-73
2021/06/05 07:13:57;;;;;;;10.98;7.50;;;;;;;21.75;55.36;101678.22;5096567;28;20055;-73
2021/06/05 07:16:24;;;;;;;10.73;7.35;;;;;;;21.75;55.14;101675.53;5099863;28;20381;-72
2021/06/05 07:18:51;;;;;;;10.40;6.97;;;;;;;21.72;55.28;101673.25;5099723;28;20036;-73
2021/06/05 07:21:18;;;;;;;10.80;7.32;;;;;;;21.76;55.18;101677.22;5095667;28;20403;-72
2021/06/05 07:23:46;;;;;;;10.73;7.65;;;;;;;21.76;55.18;101677.22;5091968;28;20044;-72
2021/06/05 07:26:17;;;;;;;10.55;7.03;;;;;;;21.76;55.13;101684.50;5057436;28;20042;-72
2021/06/05 07:28:48;;;;;;;10.63;6.95;;;;;;;21.76;55.21;101681.78;5057520;28;20073;-72
2021/06/05 07:31:17;;;;;;;;;;;;;;;21.75;54.97;101683.63;5073699;28;20050;-72
2021/06/05 07:33:45;;;;;;;9.68;6.47;;;;;;;21.75;55.18;101683.63;5041329;28;19939;-72
2021/06/05 07:36:17;;;;;;;10.40;7.13;;;;;;;21.73;55.20;101685.72;5057058;28;20135;-72
2021/06/05 07:38:43;;;;;;;;;;;;;;;21.74;55.29;101686.53;5075654;28;20043;-72
2021/06/05 07:41:10;;;;;;;10.80;7.15;;;;;;;21.74;55.32;101691.94;5057572;28;20019;-72
2021/06/05 07:43:39;;;;;;;10.45;6.97;;;;;;;21.74;55.36;101687.38;5075264;28;20178;-72
2021/06/05 07:46:06;;;;;;;10.63;7.13;;;;;;;21.75;55.33;101688.22;5059183;28;20051;-72
2021/06/05 07:48:33;;;;;;;10.98;7.07;;;;;;;21.76;55.46;101689.88;5095127;28;20036;-72
2021/06/05 07:51:00;;;;;;;10.93;6.93;;;;;;;21.74;55.23;101686.53;5095228;28;20163;-73
2021/06/05 07:53:27;;;;;;;10.50;6.82;;;;;;;21.74;55.31;101690.09;5077402;28;20443;-73
2021/06/05 07:55:54;;;;;;;10.13;6.82;;;;;;;21.75;55.31;101689.03;5095415;28;20144;-73
2021/06/05 07:58:21;;;;;;;11.25;7.03;;;;;;;21.75;55.25;101686.34;5094394;28;20040;-73
2021/06/05 08:00:47;;;;;;;11.02;6.72;;;;;;;21.70;55.08;101675.31;5093502;28;21193;-73
2021/06/05 08:03:15;;;;;;;10.38;6.68;;;;;;;21.76;55.37;101696.09;5095076;28;20127;-73
2021/06/05 08:05:42;;;;;;;10.73;6.45;;;;;;;21.78;55.23;101687.81;5095118;28;20040;-73
2021/06/05 08:08:11;;;;;;;9.65;6.57;;;;;;;21.79;55.37;101692.16;5058056;28;20056;-73
2021/06/05 08:10:49;;;;;;;9.68;6.57;;;;;;;21.81;54.99;101688.22;5063573;28;20048;-73
2021/06/05 08:13:16;;;;;;;8.93;5.97;;;;;;;21.82;55.02;101691.75;5077095;28;20071;-73
2021/06/05 08:15:47;;;;;;;9.65;6.20;;;;;;;21.82;55.08;101684.47;5058214;28;20066;-73
2021/06/05 08:18:15;;;;;;;11.98;6.95;;;;;;;21.81;55.03;101688.22;5112985;28;20064;-73
2021/06/05 08:20:46;;;;;;;9.75;6.40;;;;;;;21.81;54.98;101685.53;5096568;28;20118;-73
2021/06/05 08:23:13;;;;;;;;;;;;;;;21.82;55.13;101687.19;5082001;28;20059;-72
2021/06/05 08:25:40;;;;;;;10.15;6.70;;;;;;;21.77;55.18;101675.34;5102652;28;19973;-74
2021/06/05 08:28:08;;;;;;;9.88;6.10;;;;;;;21.81;55.15;101681.97;5094954;28;20063;-73
2021/06/05 08:30:40;;;;;;;10.25;6.85;;;;;;;21.80;55.35;101683.03;5105533;28;20522;-74
2021/06/05 08:33:08;;;;;;;9.63;6.30;;;;;;;21.80;55.06;101683.84;5080542;28;20428;-74
2021/06/05 08:35:37;;;;;;;10.00;6.53;;;;;;;21.80;55.04;101683.03;5115027;28;20423;-74
2021/06/05 08:38:07;;;;;;;10.05;6.25;;;;;;;21.81;55.08;101685.53;5086945;28;20071;-74
2021/06/05 08:40:49;;;;;;;9.63;6.15;;;;;;;21.73;55.16;101672.22;5095244;28;20047;-75
2021/06/05 08:43:24;;;;;;;10.73;6.88;;;;;;;21.82;55.12;101679.06;5060708;28;20047;-75
2021/06/05 08:45:52;;;;;;;10.80;6.97;;;;;;;21.84;55.11;101677.00;5076971;28;20048;-75
2021/06/05 08:48:22;;;;;;;10.23;7.20;;;;;;;21.84;55.38;101681.56;5060835;28;20040;-74
2021/06/05 08:50:48;;;;;;;11.45;7.28;;;;;;;21.85;55.05;101680.56;5094884;28;20066;-75
2021/06/05 08:53:25;;;;;;;10.82;7.10;;;;;;;21.87;55.14;101681.16;5076579;28;20127;-73
2021/06/05 08:55:55;;;;;;;11.80;7.85;;;;;;;21.85;55.49;101675.97;5094278;28;20047;-74
2021/06/05 08:58:46;;;;;;;17.75;11.10;;;;;;;21.70;56.99;101678.00;5056011;28;20083;-74
2021/06/05 09:01:27;;;;;;;21.52;14.13;;;;;;;21.66;57.70;101676.78;5077578;28;20070;-74
2021/06/05 09:03:57;;;;;;;;;;;;;;;21.66;57.90;101680.28;5026437;28;20101;-74
2021/06/05 09:06:34;;;;;;;25.02;16.02;;;;;;;21.70;57.74;101683.41;5091180;28;19979;-73
2021/06/05 09:09:05;;;;;;;30.67;20.90;;;;;;;21.67;58.24;101686.53;5075057;28;20447;-74
2021/06/05 09:11:33;;;;;;;33.03;23.50;;;;;;;21.79;57.88;101686.75;5060979;28;20094;-74
2021/06/05 09:14:01;;;;;;;34.33;21.65;;;;;;;21.85;57.00;101680.56;5059450;28;20080;-74
2021/06/05 09:16:47;;;;;;;34.03;23.88;;;;;;;21.89;57.58;101680.97;5099231;28;20504;-74
2021/06/05 09:22:13;;;;;;;37.15;26.88;;;;;;;21.93;57.30;101690.31;5133291;27;20203;-73
2021/06/05 09:24:47;;;;;;;33.35;24.67;;;;;;;21.93;57.37;101684.91;5131168;27;20465;-73
2021/06/05 09:30:05;;;;;;;37.30;27.85;;;;;;;21.91;57.10;101682.41;5106068;27;20139;-73
2021/06/05 09:32:35;;;;;;;36.00;25.20;;;;;;;21.90;57.45;101679.91;5054937;28;20056;-73
2021/06/05 09:35:13;;;;;;;36.67;26.58;;;;;;;21.90;57.65;101679.91;5089061;28;20147;-74
2021/06/05 09:40:24;;;;;;;36.63;30.75;;;;;;;21.92;57.30;101684.09;5104106;27;20395;-74
2021/06/05 09:42:57;;;;;;;37.28;28.08;;;;;;;21.91;57.10;101679.72;5066231;28;20041;-73
2021/06/05 09:45:43;;;;;;;35.05;26.63;;;;;;;21.92;57.16;101677.84;5065689;28;20119;-73
2021/06/05 09:48:32;;;;;;;37.40;26.65;;;;;;;21.89;57.30;101689.06;5049348;28;20561;-74
2021/06/05 09:51:01;;;;;;;38.08;27.02;;;;;;;21.83;57.86;101685.34;5049671;28;20107;-73
2021/06/05 09:53:34;;;;;;;37.53;29.23;;;;;;;21.86;57.72;101695.69;5049240;28;20214;-74
2021/06/05 09:56:21;;;;;;;40.47;27.98;;;;;;;21.88;57.75;101698.19;5048834;28;20072;-74
2021/06/05 09:59:02;;;;;;;39.05;28.85;;;;;;;21.89;58.27;101699.88;5065276;28;20087;-73
2021/06/05 10:01:30;;;;;;;38.40;28.92;;;;;;;21.87;57.97;101693.84;5047133;28;20064;-73
2021/06/05 10:04:13;;;;;;;38.50;27.98;;;;;;;21.90;57.94;101696.13;5068892;28;20136;-73
2021/06/05 10:06:47;;;;;;;36.00;27.25;;;;;;;21.92;57.77;101697.59;5067663;28;20044;-73
2021/06/05 10:09:35;;;;;;;37.28;28.95;;;;;;;21.93;57.86;101698.41;5067530;28;20090;-74
2021/06/05 10:12:22;;;;;;;36.65;27.75;;;;;;;21.94;57.86;101695.50;5069789;28;20060;-73
2021/06/05 10:15:12;;;;;;;43.38;30.83;;;;;;;21.96;58.06;101700.72;5068380;28;20045;-73
2021/06/05 10:17:52;;;;;;;43.80;34.38;;;;;;;21.96;57.43;101709.63;5083169;28;20036;-74
2021/06/05 10:20:46;;;;;;;43.60;33.65;;;;;;;21.95;57.60;101699.84;5083757;28;20095;-74
2021/06/05 10:23:19;;;;;;;48.55;36.00;;;;;;;22.00;57.27;101710.06;5068071;28;20048;-73
2021/06/05 10:25:51;;;;;;;43.58;34.72;;;;;;;22.02;57.57;101708.81;5064735;28;20033;-73
2021/06/05 10:28:22;;;;;;;41.20;33.35;;;;;;;22.05;57.04;101703.00;5070066;28;20048;-73
2021/06/05 10:30:54;;;;;;;46.60;37.40;;;;;;;22.05;57.23;101713.81;5066279;28;20045;-73
2021/06/05 10:33:44;;;;;;;45.53;35.42;;;;;;;22.06;57.12;101720.03;5063603;28;20052;-73
2021/06/05 10:36:32;;;;;;;45.85;35.90;;;;;;;22.07;57.00;101715.47;5069329;28;20041;-73
2021/06/05 10:39:11;;;;;;;46.63;35.33;;;;;;;22.07;56.55;101715.47;5042249;28;20080;-72
2021/06/05 10:41:43;;;;;;;44.45;34.78;;;;;;;22.07;57.05;101715.47;5052970;28;20037;-72
2021/06/05 10:44:10;;;;;;;;;;;;;;;22.07;56.84;101712.78;5063548;28;20548;-72
2021/06/05 10:46:47;;;;;;;54.35;43.65;;;;;;;22.05;57.21;101716.50;5048989;28;20308;-72
2021/06/05 10:49:30;;;;;;;48.28;39.20;;;;;;;22.02;57.17;101714.19;5068026;28;20083;-72
2021/06/05 10:55:13;;;;;;;56.63;41.25;;;;;;;21.97;57.23;101714.00;5133352;27;20119;-73
2021/06/05 10:57:45;;;;;;;64.55;49.20;;;;;;;21.88;57.97;101703.59;5114901;28;20032;-73
2021/06/05 11:00:52;;;;;;;66.75;50.40;;;;;;;21.89;58.61;101713.38;5091425;28;20070;-73
2021/06/05 11:06:15;;;;;;;70.32;49.22;;;;;;;21.90;58.81;101706.91;5103175;27;20133;-72
2021/06/05 11:08:56;;;;;;;67.75;49.30;;;;;;;21.90;59.47;101705.03;5054534;28;20036;-72
2021/06/05 11:11:47;;;;;;;67.70;48.17;;;;;;;21.89;59.43;101706.09;5022650;28;20049;-72
2021/06/05 11:17:09;;;;;;;64.45;46.22;;;;;;;21.91;59.05;101703.19;5133791;27;20333;-72
2021/06/05 11:22:18;;;;;;;61.28;44.08;;;;;;;21.95;58.47;101694.47;5115619;27;20136;-72
2021/06/05 11:33:10;;;;;;;56.75;41.83;;;;;;;22.00;58.12;101700.06;5100474;27;20130;-72
2021/06/05 11:41:00;;;;;;;58.53;42.53;;;;;;;22.00;58.13;101715.47;5098962;27;20133;-72
2021/06/05 11:46:12;;;;;;;56.78;42.20;;;;;;;21.98;58.13;101714.84;5072848;28;20599;-73
2021/06/05 11:49:01;;;;;;;56.45;40.20;;;;;;;21.91;58.33;101714.00;5090584;28;20416;-72
2021/06/05 11:51:32;;;;;;;54.50;38.03;;;;;;;21.94;58.36;101721.66;5057396;28;20094;-72
2021/06/05 11:54:13;;;;;;;53.20;38.95;;;;;;;21.88;58.55;101715.22;5072328;28;20100;-73
2021/06/05 11:57:09;;;;;;;52.50;38.67;;;;;;;21.96;58.06;101722.31;5073964;28;20044;-73
2021/06/05 11:59:43;;;;;;;53.42;38.65;;;;;;;21.93;58.41;101728.13;5055979;28;20554;-73
2021/06/05 12:02:32;;;;;;;51.42;37.28;;;;;;;21.92;58.41;101727.31;5087209;28;20111;-73
2021/06/05 12:05:05;;;;;;;49.95;37.17;;;;;;;21.91;58.28;101725.63;5087454;28;20087;-72
2021/06/05 12:07:35;;;;;;;51.70;37.35;;;;;;;21.91;58.40;101727.50;5082779;28;20052;-73
2021/06/05 12:10:06;;;;;;;55.13;37.60;;;;;;;21.90;58.33;101732.06;5082062;28;20048;-73
2021/06/05 12:12:38;;;;;;;54.92;38.03;;;;;;;21.92;57.86;101732.72;5053632;28;20075;-73